sensor_id;sensor_type;location;lat;lon;timestamp;P1;durP1;ratioP1;P2;durP2;ratioP2
35745;SDS011;21870;42.812;74.628;2024-03-17T00:00:07;4.82;;;4.05;;
35745;SDS011;21870;42.812;74.628;2024-03-17T00:02:39;6.60;;;5.03;;
35745;SDS011;21870;42.812;74.628;2024-03-17T00:05:06;5.43;;;4.88;;
35745;SDS011;21870;42.812;74.628;2024-03-17T00:07:32;8.18;;;4.22;;
35745;SDS011;21870;42.812;74.628;2024-03-17T00:09:58;3.83;;;3.25;;
35745;SDS011;21870;42.812;74.628;2024-03-17T00:12:24;3.33;;;3.03;;
35745;SDS011;21870;42.812;74.628;2024-03-17T00:14:51;4.07;;;3.67;;
35745;SDS011;21870;42.812;74.628;2024-03-17T00:17:17;3.63;;;3.28;;
35745;SDS011;21870;42.812;74.628;2024-03-17T00:19:46;4.13;;;3.83;;
35745;SDS011;21870;42.812;74.628;2024-03-17T00:22:12;5.50;;;4.25;;
35745;SDS011;21870;42.812;74.628;2024-03-17T00:24:42;5.38;;;4.47;;
35745;SDS011;21870;42.812;74.628;2024-03-17T00:27:09;6.68;;;4.40;;
35745;SDS011;21870;42.812;74.628;2024-03-17T00:29:37;8.07;;;5.97;;
35745;SDS011;21870;42.812;74.628;2024-03-17T00:32:03;6.85;;;5.72;;
35745;SDS011;21870;42.812;74.628;2024-03-17T00:34:31;7.00;;;5.07;;
35745;SDS011;21870;42.812;74.628;2024-03-17T00:36:57;7.63;;;5.53;;
35745;SDS011;21870;42.812;74.628;2024-03-17T00:39:24;7.47;;;5.55;;
35745;SDS011;21870;42.812;74.628;2024-03-17T00:41:51;7.88;;;5.03;;
35745;SDS011;21870;42.812;74.628;2024-03-17T00:44:19;5.47;;;4.90;;
35745;SDS011;21870;42.812;74.628;2024-03-17T00:46:45;4.95;;;4.43;;
35745;SDS011;21870;42.812;74.628;2024-03-17T00:49:12;5.03;;;4.47;;
35745;SDS011;21870;42.812;74.628;2024-03-17T00:51:38;5.68;;;3.67;;
35745;SDS011;21870;42.812;74.628;2024-03-17T00:54:04;6.90;;;4.70;;
35745;SDS011;21870;42.812;74.628;2024-03-17T00:56:30;7.82;;;4.60;;
35745;SDS011;21870;42.812;74.628;2024-03-17T00:58:56;6.22;;;4.15;;
35745;SDS011;21870;42.812;74.628;2024-03-17T01:01:22;7.50;;;4.55;;
35745;SDS011;21870;42.812;74.628;2024-03-17T01:03:50;6.25;;;5.10;;
35745;SDS011;21870;42.812;74.628;2024-03-17T01:06:16;5.75;;;5.05;;
35745;SDS011;21870;42.812;74.628;2024-03-17T01:08:42;6.80;;;5.13;;
35745;SDS011;21870;42.812;74.628;2024-03-17T01:11:13;5.32;;;4.82;;
35745;SDS011;21870;42.812;74.628;2024-03-17T01:13:44;6.38;;;4.63;;
35745;SDS011;21870;42.812;74.628;2024-03-17T01:16:12;7.35;;;5.25;;
35745;SDS011;21870;42.812;74.628;2024-03-17T01:18:41;7.10;;;5.13;;
35745;SDS011;21870;42.812;74.628;2024-03-17T01:21:08;8.70;;;4.95;;
35745;SDS011;21870;42.812;74.628;2024-03-17T01:23:37;6.03;;;4.68;;
35745;SDS011;21870;42.812;74.628;2024-03-17T01:26:03;10.15;;;5.85;;
35745;SDS011;21870;42.812;74.628;2024-03-17T01:28:29;7.28;;;5.95;;
35745;SDS011;21870;42.812;74.628;2024-03-17T01:30:55;8.32;;;6.28;;
35745;SDS011;21870;42.812;74.628;2024-03-17T01:33:21;10.88;;;5.93;;
35745;SDS011;21870;42.812;74.628;2024-03-17T01:35:48;8.85;;;5.95;;
35745;SDS011;21870;42.812;74.628;2024-03-17T01:38:14;6.70;;;5.55;;
35745;SDS011;21870;42.812;74.628;2024-03-17T01:40:40;6.85;;;5.35;;
35745;SDS011;21870;42.812;74.628;2024-03-17T01:43:09;9.63;;;5.63;;
35745;SDS011;21870;42.812;74.628;2024-03-17T01:45:36;8.35;;;5.45;;
35745;SDS011;21870;42.812;74.628;2024-03-17T01:48:08;6.13;;;4.97;;
35745;SDS011;21870;42.812;74.628;2024-03-17T01:50:39;8.30;;;5.45;;
35745;SDS011;21870;42.812;74.628;2024-03-17T01:53:06;6.03;;;5.43;;
35745;SDS011;21870;42.812;74.628;2024-03-17T01:55:37;5.47;;;4.97;;
35745;SDS011;21870;42.812;74.628;2024-03-17T01:58:05;7.85;;;5.35;;
35745;SDS011;21870;42.812;74.628;2024-03-17T02:00:38;6.68;;;5.18;;
35745;SDS011;21870;42.812;74.628;2024-03-17T02:03:05;7.40;;;4.80;;
35745;SDS011;21870;42.812;74.628;2024-03-17T02:05:34;6.05;;;4.97;;
35745;SDS011;21870;42.812;74.628;2024-03-17T02:08:03;7.72;;;5.22;;
35745;SDS011;21870;42.812;74.628;2024-03-17T02:10:30;7.07;;;5.40;;
35745;SDS011;21870;42.812;74.628;2024-03-17T02:12:56;8.55;;;5.80;;
35745;SDS011;21870;42.812;74.628;2024-03-17T02:15:23;6.25;;;5.50;;
35745;SDS011;21870;42.812;74.628;2024-03-17T02:17:49;7.57;;;5.00;;
35745;SDS011;21870;42.812;74.628;2024-03-17T02:20:15;6.40;;;5.40;;
35745;SDS011;21870;42.812;74.628;2024-03-17T02:22:43;6.15;;;5.55;;
35745;SDS011;21870;42.812;74.628;2024-03-17T02:25:09;5.78;;;4.90;;
35745;SDS011;21870;42.812;74.628;2024-03-17T02:27:36;8.02;;;5.05;;
35745;SDS011;21870;42.812;74.628;2024-03-17T02:30:02;6.65;;;5.55;;
35745;SDS011;21870;42.812;74.628;2024-03-17T02:32:38;6.35;;;4.65;;
35745;SDS011;21870;42.812;74.628;2024-03-17T02:35:04;6.43;;;4.93;;
35745;SDS011;21870;42.812;74.628;2024-03-17T02:37:30;5.53;;;4.82;;
35745;SDS011;21870;42.812;74.628;2024-03-17T02:39:57;9.77;;;5.63;;
35745;SDS011;21870;42.812;74.628;2024-03-17T02:42:23;4.38;;;3.67;;
35745;SDS011;21870;42.812;74.628;2024-03-17T02:44:49;10.00;;;4.80;;
35745;SDS011;21870;42.812;74.628;2024-03-17T02:47:16;5.90;;;3.88;;
35745;SDS011;21870;42.812;74.628;2024-03-17T02:49:42;7.25;;;4.05;;
35745;SDS011;21870;42.812;74.628;2024-03-17T02:52:09;7.78;;;4.72;;
35745;SDS011;21870;42.812;74.628;2024-03-17T02:54:37;5.38;;;4.10;;
35745;SDS011;21870;42.812;74.628;2024-03-17T02:57:04;8.57;;;4.53;;
35745;SDS011;21870;42.812;74.628;2024-03-17T02:59:34;5.30;;;4.10;;
35745;SDS011;21870;42.812;74.628;2024-03-17T03:02:00;4.63;;;3.78;;
35745;SDS011;21870;42.812;74.628;2024-03-17T03:04:27;7.75;;;4.22;;
35745;SDS011;21870;42.812;74.628;2024-03-17T03:06:56;4.63;;;3.85;;
35745;SDS011;21870;42.812;74.628;2024-03-17T03:09:22;4.53;;;3.80;;
35745;SDS011;21870;42.812;74.628;2024-03-17T03:11:56;4.82;;;4.10;;
35745;SDS011;21870;42.812;74.628;2024-03-17T03:14:27;7.15;;;4.32;;
35745;SDS011;21870;42.812;74.628;2024-03-17T03:16:54;10.10;;;3.55;;
35745;SDS011;21870;42.812;74.628;2024-03-17T03:19:20;6.20;;;3.85;;
35745;SDS011;21870;42.812;74.628;2024-03-17T03:21:46;11.45;;;3.85;;
35745;SDS011;21870;42.812;74.628;2024-03-17T03:24:16;19.77;;;6.30;;
35745;SDS011;21870;42.812;74.628;2024-03-17T03:26:45;13.73;;;5.03;;
35745;SDS011;21870;42.812;74.628;2024-03-17T03:29:11;15.20;;;4.53;;
35745;SDS011;21870;42.812;74.628;2024-03-17T03:31:37;9.15;;;4.20;;
35745;SDS011;21870;42.812;74.628;2024-03-17T03:34:09;7.75;;;3.90;;
35745;SDS011;21870;42.812;74.628;2024-03-17T03:36:37;13.98;;;5.43;;
35745;SDS011;21870;42.812;74.628;2024-03-17T03:39:04;7.55;;;4.80;;
35745;SDS011;21870;42.812;74.628;2024-03-17T03:41:30;7.20;;;4.15;;
35745;SDS011;21870;42.812;74.628;2024-03-17T03:44:00;9.18;;;4.40;;
35745;SDS011;21870;42.812;74.628;2024-03-17T03:46:26;17.00;;;6.05;;
35745;SDS011;21870;42.812;74.628;2024-03-17T03:48:52;18.52;;;6.53;;
35745;SDS011;21870;42.812;74.628;2024-03-17T03:51:19;25.40;;;7.20;;
35745;SDS011;21870;42.812;74.628;2024-03-17T03:53:45;15.13;;;6.10;;
35745;SDS011;21870;42.812;74.628;2024-03-17T03:56:11;12.90;;;6.35;;
35745;SDS011;21870;42.812;74.628;2024-03-17T03:58:37;11.25;;;7.80;;
35745;SDS011;21870;42.812;74.628;2024-03-17T04:01:05;8.70;;;4.95;;
35745;SDS011;21870;42.812;74.628;2024-03-17T04:03:33;4.25;;;3.45;;
35745;SDS011;21870;42.812;74.628;2024-03-17T04:06:09;3.95;;;3.65;;
35745;SDS011;21870;42.812;74.628;2024-03-17T04:08:36;9.05;;;4.55;;
35745;SDS011;21870;42.812;74.628;2024-03-17T04:11:07;18.30;;;4.75;;
35745;SDS011;21870;42.812;74.628;2024-03-17T04:13:34;9.63;;;4.95;;
35745;SDS011;21870;42.812;74.628;2024-03-17T04:16:00;14.60;;;5.35;;
35745;SDS011;21870;42.812;74.628;2024-03-17T04:18:30;10.52;;;6.10;;
35745;SDS011;21870;42.812;74.628;2024-03-17T04:21:00;16.67;;;6.00;;
35745;SDS011;21870;42.812;74.628;2024-03-17T04:23:28;14.82;;;5.57;;
35745;SDS011;21870;42.812;74.628;2024-03-17T04:25:57;6.25;;;5.00;;
35745;SDS011;21870;42.812;74.628;2024-03-17T04:28:24;10.75;;;6.95;;
35745;SDS011;21870;42.812;74.628;2024-03-17T04:30:50;11.05;;;7.07;;
35745;SDS011;21870;42.812;74.628;2024-03-17T04:33:16;37.38;;;10.13;;
35745;SDS011;21870;42.812;74.628;2024-03-17T04:35:43;30.45;;;10.23;;
35745;SDS011;21870;42.812;74.628;2024-03-17T04:38:09;15.65;;;9.77;;
35745;SDS011;21870;42.812;74.628;2024-03-17T04:40:42;21.05;;;11.27;;
35745;SDS011;21870;42.812;74.628;2024-03-17T04:43:08;17.17;;;10.20;;
35745;SDS011;21870;42.812;74.628;2024-03-17T04:45:34;18.13;;;10.95;;
35745;SDS011;21870;42.812;74.628;2024-03-17T04:48:02;18.42;;;10.95;;
35745;SDS011;21870;42.812;74.628;2024-03-17T04:50:29;20.20;;;11.15;;
35745;SDS011;21870;42.812;74.628;2024-03-17T04:52:58;26.05;;;12.52;;
35745;SDS011;21870;42.812;74.628;2024-03-17T04:55:25;18.42;;;12.85;;
35745;SDS011;21870;42.812;74.628;2024-03-17T04:57:51;24.38;;;13.88;;
35745;SDS011;21870;42.812;74.628;2024-03-17T05:00:17;21.05;;;14.10;;
35745;SDS011;21870;42.812;74.628;2024-03-17T05:02:44;22.02;;;14.70;;
35745;SDS011;21870;42.812;74.628;2024-03-17T05:05:10;24.55;;;17.25;;
35745;SDS011;21870;42.812;74.628;2024-03-17T05:07:37;30.45;;;17.38;;
35745;SDS011;21870;42.812;74.628;2024-03-17T05:10:03;25.58;;;17.92;;
35745;SDS011;21870;42.812;74.628;2024-03-17T05:12:31;33.38;;;18.02;;
35745;SDS011;21870;42.812;74.628;2024-03-17T05:14:57;31.52;;;17.20;;
35745;SDS011;21870;42.812;74.628;2024-03-17T05:17:23;35.00;;;18.23;;
35745;SDS011;21870;42.812;74.628;2024-03-17T05:19:49;31.02;;;18.25;;
35745;SDS011;21870;42.812;74.628;2024-03-17T05:22:15;32.85;;;19.73;;
35745;SDS011;21870;42.812;74.628;2024-03-17T05:24:41;28.00;;;19.48;;
35745;SDS011;21870;42.812;74.628;2024-03-17T05:27:07;29.38;;;18.92;;
35745;SDS011;21870;42.812;74.628;2024-03-17T05:29:33;34.38;;;19.50;;
35745;SDS011;21870;42.812;74.628;2024-03-17T05:32:03;31.25;;;18.63;;
35745;SDS011;21870;42.812;74.628;2024-03-17T05:34:30;33.00;;;18.33;;
35745;SDS011;21870;42.812;74.628;2024-03-17T05:36:57;25.95;;;16.00;;
35745;SDS011;21870;42.812;74.628;2024-03-17T05:39:23;25.65;;;17.33;;
35745;SDS011;21870;42.812;74.628;2024-03-17T05:41:49;37.92;;;16.65;;
35745;SDS011;21870;42.812;74.628;2024-03-17T05:44:16;34.20;;;16.15;;
35745;SDS011;21870;42.812;74.628;2024-03-17T05:46:43;20.35;;;15.20;;
35745;SDS011;21870;42.812;74.628;2024-03-17T05:49:09;23.48;;;15.93;;
35745;SDS011;21870;42.812;74.628;2024-03-17T05:51:35;18.63;;;15.70;;
35745;SDS011;21870;42.812;74.628;2024-03-17T05:54:02;20.00;;;14.93;;
35745;SDS011;21870;42.812;74.628;2024-03-17T05:56:28;24.55;;;14.35;;
35745;SDS011;21870;42.812;74.628;2024-03-17T05:58:54;19.23;;;13.55;;
35745;SDS011;21870;42.812;74.628;2024-03-17T06:01:20;21.77;;;14.82;;
35745;SDS011;21870;42.812;74.628;2024-03-17T06:03:47;23.65;;;13.73;;
35745;SDS011;21870;42.812;74.628;2024-03-17T06:06:13;22.80;;;14.38;;
35745;SDS011;21870;42.812;74.628;2024-03-17T06:08:40;22.27;;;14.40;;
35745;SDS011;21870;42.812;74.628;2024-03-17T06:11:06;22.88;;;13.57;;
35745;SDS011;21870;42.812;74.628;2024-03-17T06:13:33;16.05;;;13.00;;
35745;SDS011;21870;42.812;74.628;2024-03-17T06:16:01;30.70;;;15.20;;
35745;SDS011;21870;42.812;74.628;2024-03-17T06:18:28;18.50;;;13.35;;
35745;SDS011;21870;42.812;74.628;2024-03-17T06:20:54;24.40;;;13.60;;
35745;SDS011;21870;42.812;74.628;2024-03-17T06:23:24;22.85;;;13.63;;
35745;SDS011;21870;42.812;74.628;2024-03-17T06:25:53;28.27;;;14.35;;
35745;SDS011;21870;42.812;74.628;2024-03-17T06:28:20;21.80;;;13.07;;
35745;SDS011;21870;42.812;74.628;2024-03-17T06:30:56;18.70;;;13.20;;
35745;SDS011;21870;42.812;74.628;2024-03-17T06:33:29;31.63;;;13.38;;
35745;SDS011;21870;42.812;74.628;2024-03-17T06:35:57;22.38;;;12.88;;
35745;SDS011;21870;42.812;74.628;2024-03-17T06:38:23;20.75;;;12.07;;
35745;SDS011;21870;42.812;74.628;2024-03-17T06:40:50;43.97;;;15.07;;
35745;SDS011;21870;42.812;74.628;2024-03-17T06:43:16;37.55;;;14.77;;
35745;SDS011;21870;42.812;74.628;2024-03-17T06:45:43;20.73;;;13.15;;
35745;SDS011;21870;42.812;74.628;2024-03-17T06:48:09;24.15;;;12.75;;
35745;SDS011;21870;42.812;74.628;2024-03-17T06:50:37;29.73;;;12.77;;
35745;SDS011;21870;42.812;74.628;2024-03-17T06:53:06;51.90;;;15.23;;
35745;SDS011;21870;42.812;74.628;2024-03-17T06:55:33;22.50;;;14.48;;
35745;SDS011;21870;42.812;74.628;2024-03-17T06:58:00;24.45;;;14.60;;
35745;SDS011;21870;42.812;74.628;2024-03-17T07:00:26;21.23;;;14.63;;
35745;SDS011;21870;42.812;74.628;2024-03-17T07:02:52;22.20;;;15.18;;
35745;SDS011;21870;42.812;74.628;2024-03-17T07:05:19;21.17;;;14.73;;
35745;SDS011;21870;42.812;74.628;2024-03-17T07:07:45;29.45;;;15.07;;
35745;SDS011;21870;42.812;74.628;2024-03-17T07:10:11;29.60;;;15.15;;
35745;SDS011;21870;42.812;74.628;2024-03-17T07:12:38;33.03;;;14.43;;
35745;SDS011;21870;42.812;74.628;2024-03-17T07:15:06;27.75;;;15.50;;
35745;SDS011;21870;42.812;74.628;2024-03-17T07:17:33;28.45;;;16.83;;
35745;SDS011;21870;42.812;74.628;2024-03-17T07:19:59;25.35;;;17.08;;
35745;SDS011;21870;42.812;74.628;2024-03-17T07:22:26;25.33;;;18.95;;
35745;SDS011;21870;42.812;74.628;2024-03-17T07:24:53;29.92;;;19.58;;
35745;SDS011;21870;42.812;74.628;2024-03-17T07:27:29;30.52;;;22.52;;
35745;SDS011;21870;42.812;74.628;2024-03-17T07:29:56;25.55;;;20.45;;
35745;SDS011;21870;42.812;74.628;2024-03-17T07:32:22;31.63;;;21.52;;
35745;SDS011;21870;42.812;74.628;2024-03-17T07:34:49;33.30;;;24.75;;
35745;SDS011;21870;42.812;74.628;2024-03-17T07:37:15;32.30;;;25.92;;
35745;SDS011;21870;42.812;74.628;2024-03-17T07:39:41;33.28;;;25.38;;
35745;SDS011;21870;42.812;74.628;2024-03-17T07:42:08;30.85;;;24.40;;
35745;SDS011;21870;42.812;74.628;2024-03-17T07:44:34;39.10;;;26.23;;
35745;SDS011;21870;42.812;74.628;2024-03-17T07:47:00;28.88;;;24.05;;
35745;SDS011;21870;42.812;74.628;2024-03-17T07:49:29;36.20;;;24.70;;
35745;SDS011;21870;42.812;74.628;2024-03-17T07:51:58;33.70;;;24.05;;
35745;SDS011;21870;42.812;74.628;2024-03-17T07:54:24;47.13;;;25.98;;
35745;SDS011;21870;42.812;74.628;2024-03-17T07:56:51;41.05;;;26.48;;
35745;SDS011;21870;42.812;74.628;2024-03-17T07:59:18;41.72;;;25.75;;
35745;SDS011;21870;42.812;74.628;2024-03-17T08:01:44;34.35;;;24.65;;
35745;SDS011;21870;42.812;74.628;2024-03-17T08:04:11;42.83;;;24.50;;
35745;SDS011;21870;42.812;74.628;2024-03-17T08:06:39;29.45;;;24.67;;
35745;SDS011;21870;42.812;74.628;2024-03-17T08:09:06;32.40;;;24.33;;
35745;SDS011;21870;42.812;74.628;2024-03-17T08:11:33;37.28;;;24.67;;
35745;SDS011;21870;42.812;74.628;2024-03-17T08:14:00;29.10;;;24.92;;
35745;SDS011;21870;42.812;74.628;2024-03-17T08:16:27;38.53;;;25.27;;
35745;SDS011;21870;42.812;74.628;2024-03-17T08:18:57;34.53;;;23.95;;
35745;SDS011;21870;42.812;74.628;2024-03-17T08:21:23;30.00;;;23.70;;
35745;SDS011;21870;42.812;74.628;2024-03-17T08:23:54;37.67;;;22.42;;
35745;SDS011;21870;42.812;74.628;2024-03-17T08:26:20;31.52;;;23.17;;
35745;SDS011;21870;42.812;74.628;2024-03-17T08:28:46;25.85;;;21.45;;
35745;SDS011;21870;42.812;74.628;2024-03-17T08:31:12;34.25;;;23.00;;
35745;SDS011;21870;42.812;74.628;2024-03-17T08:33:40;36.25;;;22.17;;
35745;SDS011;21870;42.812;74.628;2024-03-17T08:36:07;32.33;;;23.10;;
35745;SDS011;21870;42.812;74.628;2024-03-17T08:38:34;30.85;;;22.70;;
35745;SDS011;21870;42.812;74.628;2024-03-17T08:41:04;29.50;;;22.30;;
35745;SDS011;21870;42.812;74.628;2024-03-17T08:43:32;30.00;;;21.05;;
35745;SDS011;21870;42.812;74.628;2024-03-17T08:46:03;35.33;;;21.42;;
35745;SDS011;21870;42.812;74.628;2024-03-17T08:48:34;33.92;;;21.20;;
35745;SDS011;21870;42.812;74.628;2024-03-17T08:51:02;26.77;;;20.98;;
35745;SDS011;21870;42.812;74.628;2024-03-17T08:53:30;26.73;;;20.75;;
35745;SDS011;21870;42.812;74.628;2024-03-17T08:55:56;30.08;;;20.60;;
35745;SDS011;21870;42.812;74.628;2024-03-17T08:58:23;31.13;;;21.77;;
35745;SDS011;21870;42.812;74.628;2024-03-17T09:00:50;35.20;;;21.17;;
35745;SDS011;21870;42.812;74.628;2024-03-17T09:03:17;25.25;;;21.48;;
35745;SDS011;21870;42.812;74.628;2024-03-17T09:05:44;31.23;;;22.98;;
35745;SDS011;21870;42.812;74.628;2024-03-17T09:08:21;27.08;;;21.08;;
35745;SDS011;21870;42.812;74.628;2024-03-17T09:10:49;32.78;;;23.13;;
35745;SDS011;21870;42.812;74.628;2024-03-17T09:13:24;43.92;;;24.60;;
35745;SDS011;21870;42.812;74.628;2024-03-17T09:15:52;25.90;;;23.02;;
35745;SDS011;21870;42.812;74.628;2024-03-17T09:18:19;34.33;;;23.23;;
35745;SDS011;21870;42.812;74.628;2024-03-17T09:20:45;30.77;;;22.30;;
35745;SDS011;21870;42.812;74.628;2024-03-17T09:23:12;34.33;;;23.05;;
35745;SDS011;21870;42.812;74.628;2024-03-17T09:25:39;31.50;;;22.67;;
35745;SDS011;21870;42.812;74.628;2024-03-17T09:28:05;30.73;;;21.95;;
35745;SDS011;21870;42.812;74.628;2024-03-17T09:30:31;33.17;;;22.00;;
35745;SDS011;21870;42.812;74.628;2024-03-17T09:32:57;30.10;;;23.83;;
35745;SDS011;21870;42.812;74.628;2024-03-17T09:35:24;32.03;;;23.38;;
35745;SDS011;21870;42.812;74.628;2024-03-17T09:37:50;29.42;;;22.77;;
35745;SDS011;21870;42.812;74.628;2024-03-17T09:40:17;41.85;;;25.80;;
35745;SDS011;21870;42.812;74.628;2024-03-17T09:42:43;26.88;;;23.15;;
35745;SDS011;21870;42.812;74.628;2024-03-17T09:45:12;30.45;;;22.55;;
35745;SDS011;21870;42.812;74.628;2024-03-17T09:47:40;33.38;;;24.23;;
35745;SDS011;21870;42.812;74.628;2024-03-17T09:50:12;28.88;;;22.63;;
35745;SDS011;21870;42.812;74.628;2024-03-17T09:52:44;30.77;;;23.00;;
35745;SDS011;21870;42.812;74.628;2024-03-17T09:55:16;30.88;;;22.98;;
35745;SDS011;21870;42.812;74.628;2024-03-17T09:57:43;28.58;;;22.33;;
35745;SDS011;21870;42.812;74.628;2024-03-17T10:00:10;29.70;;;21.88;;
35745;SDS011;21870;42.812;74.628;2024-03-17T10:02:45;36.55;;;22.45;;
35745;SDS011;21870;42.812;74.628;2024-03-17T10:05:22;29.52;;;22.85;;
35745;SDS011;21870;42.812;74.628;2024-03-17T10:07:52;28.60;;;21.58;;
35745;SDS011;21870;42.812;74.628;2024-03-17T10:10:18;36.03;;;21.70;;
35745;SDS011;21870;42.812;74.628;2024-03-17T10:12:49;27.08;;;20.88;;
35745;SDS011;21870;42.812;74.628;2024-03-17T10:15:17;26.92;;;19.42;;
35745;SDS011;21870;42.812;74.628;2024-03-17T10:17:44;24.20;;;19.38;;
35745;SDS011;21870;42.812;74.628;2024-03-17T10:20:11;31.23;;;20.35;;
35745;SDS011;21870;42.812;74.628;2024-03-17T10:23:00;25.77;;;20.15;;
35745;SDS011;21870;42.812;74.628;2024-03-17T10:25:30;27.10;;;20.45;;
35745;SDS011;21870;42.812;74.628;2024-03-17T10:28:01;26.88;;;20.27;;
35745;SDS011;21870;42.812;74.628;2024-03-17T10:30:27;26.52;;;18.30;;
35745;SDS011;21870;42.812;74.628;2024-03-17T10:32:57;22.10;;;19.38;;
35745;SDS011;21870;42.812;74.628;2024-03-17T10:35:32;23.20;;;18.65;;
35745;SDS011;21870;42.812;74.628;2024-03-17T10:38:00;32.55;;;19.83;;
35745;SDS011;21870;42.812;74.628;2024-03-17T10:40:28;25.58;;;18.20;;
35745;SDS011;21870;42.812;74.628;2024-03-17T10:42:55;23.08;;;17.45;;
35745;SDS011;21870;42.812;74.628;2024-03-17T10:45:23;23.48;;;18.35;;
35745;SDS011;21870;42.812;74.628;2024-03-17T10:47:51;27.83;;;17.70;;
35745;SDS011;21870;42.812;74.628;2024-03-17T10:50:21;28.38;;;19.60;;
35745;SDS011;21870;42.812;74.628;2024-03-17T10:52:52;21.98;;;17.52;;
35745;SDS011;21870;42.812;74.628;2024-03-17T10:55:24;22.08;;;16.38;;
35745;SDS011;21870;42.812;74.628;2024-03-17T10:57:52;23.15;;;19.00;;
35745;SDS011;21870;42.812;74.628;2024-03-17T11:00:23;24.92;;;19.08;;
35745;SDS011;21870;42.812;74.628;2024-03-17T11:02:54;24.30;;;17.35;;
35745;SDS011;21870;42.812;74.628;2024-03-17T11:05:22;25.90;;;18.63;;
35745;SDS011;21870;42.812;74.628;2024-03-17T11:07:49;23.73;;;17.98;;
35745;SDS011;21870;42.812;74.628;2024-03-17T11:12:57;29.63;;;19.40;;
35745;SDS011;21870;42.812;74.628;2024-03-17T11:17:54;25.67;;;19.33;;
35745;SDS011;21870;42.812;74.628;2024-03-17T11:20:42;26.48;;;18.27;;
35745;SDS011;21870;42.812;74.628;2024-03-17T11:23:30;25.50;;;18.23;;
35745;SDS011;21870;42.812;74.628;2024-03-17T11:25:57;20.42;;;17.15;;
35745;SDS011;21870;42.812;74.628;2024-03-17T11:33:58;25.15;;;19.80;;
35745;SDS011;21870;42.812;74.628;2024-03-17T11:39:02;29.17;;;18.60;;
35745;SDS011;21870;42.812;74.628;2024-03-17T11:41:43;29.65;;;19.45;;
35745;SDS011;21870;42.812;74.628;2024-03-17T11:52:05;30.02;;;18.80;;
35745;SDS011;21870;42.812;74.628;2024-03-17T11:54:37;26.88;;;17.80;;
35745;SDS011;21870;42.812;74.628;2024-03-17T11:57:05;30.08;;;18.67;;
35745;SDS011;21870;42.812;74.628;2024-03-17T12:00:00;24.15;;;18.73;;
35745;SDS011;21870;42.812;74.628;2024-03-17T12:02:30;35.67;;;20.20;;
35745;SDS011;21870;42.812;74.628;2024-03-17T12:04:57;24.17;;;18.77;;
35745;SDS011;21870;42.812;74.628;2024-03-17T12:07:24;35.25;;;19.45;;
35745;SDS011;21870;42.812;74.628;2024-03-17T12:09:53;49.08;;;20.17;;
35745;SDS011;21870;42.812;74.628;2024-03-17T12:12:27;23.05;;;17.48;;
35745;SDS011;21870;42.812;74.628;2024-03-17T12:15:00;34.17;;;18.95;;
35745;SDS011;21870;42.812;74.628;2024-03-17T12:17:27;33.70;;;19.90;;
35745;SDS011;21870;42.812;74.628;2024-03-17T12:19:55;25.42;;;18.55;;
35745;SDS011;21870;42.812;74.628;2024-03-17T12:22:22;22.23;;;18.45;;
35745;SDS011;21870;42.812;74.628;2024-03-17T12:24:54;26.27;;;19.10;;
35745;SDS011;21870;42.812;74.628;2024-03-17T12:27:24;24.25;;;18.63;;
35745;SDS011;21870;42.812;74.628;2024-03-17T12:29:54;26.75;;;18.13;;
35745;SDS011;21870;42.812;74.628;2024-03-17T12:32:24;26.63;;;19.60;;
35745;SDS011;21870;42.812;74.628;2024-03-17T12:34:54;33.58;;;20.05;;
35745;SDS011;21870;42.812;74.628;2024-03-17T12:37:23;23.00;;;19.70;;
35745;SDS011;21870;42.812;74.628;2024-03-17T12:39:59;27.00;;;21.70;;
35745;SDS011;21870;42.812;74.628;2024-03-17T12:42:26;28.98;;;21.23;;
35745;SDS011;21870;42.812;74.628;2024-03-17T12:44:53;54.90;;;22.70;;
35745;SDS011;21870;42.812;74.628;2024-03-17T12:47:24;33.30;;;22.08;;
35745;SDS011;21870;42.812;74.628;2024-03-17T12:52:26;36.85;;;25.27;;
35745;SDS011;21870;42.812;74.628;2024-03-17T12:57:44;34.28;;;25.60;;
35745;SDS011;21870;42.812;74.628;2024-03-17T13:00:30;39.60;;;25.45;;
35745;SDS011;21870;42.812;74.628;2024-03-17T13:02:57;72.22;;;29.10;;
35745;SDS011;21870;42.812;74.628;2024-03-17T13:05:23;41.30;;;24.23;;
35745;SDS011;21870;42.812;74.628;2024-03-17T13:07:50;66.63;;;27.15;;
35745;SDS011;21870;42.812;74.628;2024-03-17T13:10:17;38.85;;;22.80;;
35745;SDS011;21870;42.812;74.628;2024-03-17T13:12:44;37.90;;;24.02;;
35745;SDS011;21870;42.812;74.628;2024-03-17T13:15:14;41.40;;;22.55;;
35745;SDS011;21870;42.812;74.628;2024-03-17T13:17:42;32.42;;;22.52;;
35745;SDS011;21870;42.812;74.628;2024-03-17T13:20:15;34.72;;;22.08;;
35745;SDS011;21870;42.812;74.628;2024-03-17T13:22:42;33.80;;;21.52;;
35745;SDS011;21870;42.812;74.628;2024-03-17T13:25:13;30.30;;;21.77;;
35745;SDS011;21870;42.812;74.628;2024-03-17T13:27:44;27.42;;;21.38;;
35745;SDS011;21870;42.812;74.628;2024-03-17T13:30:14;31.38;;;21.33;;
35745;SDS011;21870;42.812;74.628;2024-03-17T13:32:41;26.70;;;20.55;;
35745;SDS011;21870;42.812;74.628;2024-03-17T13:35:20;27.35;;;22.90;;
35745;SDS011;21870;42.812;74.628;2024-03-17T13:37:48;24.25;;;21.20;;
35745;SDS011;21870;42.812;74.628;2024-03-17T13:40:16;26.83;;;19.58;;
35745;SDS011;21870;42.812;74.628;2024-03-17T13:42:48;25.48;;;20.63;;
35745;SDS011;21870;42.812;74.628;2024-03-17T13:45:15;27.50;;;19.85;;
35745;SDS011;21870;42.812;74.628;2024-03-17T13:47:45;21.08;;;18.70;;
35745;SDS011;21870;42.812;74.628;2024-03-17T13:50:16;32.30;;;21.42;;
35745;SDS011;21870;42.812;74.628;2024-03-17T13:52:42;35.42;;;21.70;;
35745;SDS011;21870;42.812;74.628;2024-03-17T13:55:13;25.70;;;20.27;;
35745;SDS011;21870;42.812;74.628;2024-03-17T13:57:42;24.75;;;19.45;;
35745;SDS011;21870;42.812;74.628;2024-03-17T14:00:13;24.80;;;20.05;;
35745;SDS011;21870;42.812;74.628;2024-03-17T14:02:44;25.40;;;20.20;;
35745;SDS011;21870;42.812;74.628;2024-03-17T14:05:14;22.15;;;19.88;;
35745;SDS011;21870;42.812;74.628;2024-03-17T14:07:42;23.13;;;20.67;;
35745;SDS011;21870;42.812;74.628;2024-03-17T14:10:09;27.48;;;21.17;;
35745;SDS011;21870;42.812;74.628;2024-03-17T14:12:36;24.45;;;20.45;;
35745;SDS011;21870;42.812;74.628;2024-03-17T14:15:03;23.98;;;21.45;;
35745;SDS011;21870;42.812;74.628;2024-03-17T14:17:36;25.85;;;20.73;;
35745;SDS011;21870;42.812;74.628;2024-03-17T14:20:06;25.42;;;20.83;;
35745;SDS011;21870;42.812;74.628;2024-03-17T14:22:39;30.92;;;27.13;;
35745;SDS011;21870;42.812;74.628;2024-03-17T14:25:09;31.67;;;27.35;;
35745;SDS011;21870;42.812;74.628;2024-03-17T14:27:39;31.67;;;26.52;;
35745;SDS011;21870;42.812;74.628;2024-03-17T14:30:05;39.90;;;34.58;;
35745;SDS011;21870;42.812;74.628;2024-03-17T14:32:32;40.75;;;32.65;;
35745;SDS011;21870;42.812;74.628;2024-03-17T14:34:59;42.70;;;34.15;;
35745;SDS011;21870;42.812;74.628;2024-03-17T14:37:25;36.72;;;30.27;;
35745;SDS011;21870;42.812;74.628;2024-03-17T14:39:52;37.55;;;27.15;;
35745;SDS011;21870;42.812;74.628;2024-03-17T14:42:19;30.20;;;26.90;;
35745;SDS011;21870;42.812;74.628;2024-03-17T14:44:45;34.67;;;30.50;;
35745;SDS011;21870;42.812;74.628;2024-03-17T14:47:15;41.08;;;32.35;;